createdAt,value
2022-09-23T00:02:46.148Z,12.87
2022-09-23T00:08:17.753Z,12.83
2022-09-23T00:13:49.444Z,12.7
2022-09-23T00:19:21.192Z,12.72
2022-09-23T00:24:52.948Z,12.56
2022-09-23T00:30:24.719Z,12.38
2022-09-23T00:35:56.394Z,12.1
2022-09-23T00:41:32.555Z,12.03
2022-09-23T00:47:04.226Z,11.77
2022-09-23T00:52:35.926Z,11.68
2022-09-23T00:58:07.677Z,11.5
2022-09-23T01:03:39.418Z,11.39
2022-09-23T01:09:11.146Z,11.22
2022-09-23T01:14:42.829Z,11.3
2022-09-23T01:20:14.654Z,11.27
2022-09-23T01:25:46.340Z,11.25
2022-09-23T01:31:18.025Z,11.25
2022-09-23T01:36:49.780Z,11.2
2022-09-23T01:42:25.859Z,11.23
2022-09-23T01:47:57.620Z,11.21
2022-09-23T01:53:29.254Z,11.16
2022-09-23T01:59:00.999Z,11.03
2022-09-23T02:04:32.775Z,10.99
2022-09-23T02:10:04.392Z,10.92
2022-09-23T02:15:36.182Z,10.89
2022-09-23T02:21:07.866Z,10.84
2022-09-23T02:26:39.598Z,10.79
2022-09-23T02:32:11.347Z,10.76
2022-09-23T02:37:43.026Z,10.77
2022-09-23T02:43:19.157Z,10.71
2022-09-23T02:48:50.866Z,10.63
2022-09-23T02:54:22.599Z,10.61
2022-09-23T02:59:54.320Z,10.58
2022-09-23T03:05:26.029Z,10.62
2022-09-23T03:10:57.797Z,10.65
2022-09-23T03:16:29.508Z,10.7
2022-09-23T03:22:01.304Z,10.76
2022-09-23T03:27:32.993Z,10.74
2022-09-23T03:33:04.649Z,10.77
2022-09-23T03:38:36.347Z,10.72
2022-09-23T03:44:12.589Z,10.66
2022-09-23T03:49:44.275Z,10.6
2022-09-23T03:55:16.072Z,10.51
2022-09-23T04:00:47.718Z,10.53
2022-09-23T04:06:19.486Z,10.29
2022-09-23T04:11:51.194Z,10.22
2022-09-23T04:17:23.000Z,10.3
2022-09-23T04:22:54.664Z,10.29
2022-09-23T04:28:26.330Z,10.42
2022-09-23T04:33:58.089Z,10.08
2022-09-23T04:39:29.765Z,10.39
2022-09-23T04:45:05.958Z,10.45
2022-09-23T04:50:37.694Z,10.46
2022-09-23T04:56:09.359Z,10.38
2022-09-23T05:01:41.180Z,10.22
2022-09-23T05:07:12.801Z,10.35
2022-09-23T05:12:44.554Z,10.22
2022-09-23T05:18:20.236Z,10.21
2022-09-23T05:23:48.129Z,10.22
2022-09-23T05:29:19.905Z,10.31
2022-09-23T05:34:51.641Z,10.47
2022-09-23T05:40:23.491Z,10.39
2022-09-23T05:45:59.614Z,10.33
2022-09-23T05:51:31.592Z,10.27
2022-09-23T05:57:04.315Z,10.37
2022-09-23T06:02:34.761Z,10.53
2022-09-23T06:08:06.564Z,10.46
2022-09-23T06:13:38.291Z,10.56
2022-09-23T06:19:09.931Z,10.7
2022-09-23T06:24:41.658Z,10.64
2022-09-23T06:30:13.430Z,10.93
2022-09-23T06:35:52.903Z,11.17
2022-09-23T06:41:16.889Z,11.31
2022-09-23T06:46:54.999Z,11.45
2022-09-23T06:52:26.657Z,11.49
2022-09-23T06:57:58.404Z,11.88
2022-09-23T07:03:30.149Z,12.21
2022-09-23T07:09:01.856Z,12.64
2022-09-23T07:14:33.581Z,12.94
2022-09-23T07:20:05.333Z,13.23
2022-09-23T07:25:37.007Z,13.45
2022-09-23T07:31:08.721Z,12.7
2022-09-23T07:36:40.510Z,13.4
2022-09-23T07:42:12.194Z,13.53
2022-09-23T07:47:50.359Z,13.93
2022-09-23T07:53:22.047Z,13.73
2022-09-23T07:58:53.767Z,14.01
2022-09-23T08:04:25.447Z,14.25
2022-09-23T08:09:57.218Z,14.27
2022-09-23T08:15:28.950Z,14.28
2022-09-23T08:21:00.607Z,14.43
2022-09-23T08:26:32.305Z,14.01
2022-09-23T08:32:04.110Z,14.39
2022-09-23T08:37:35.939Z,14.63
2022-09-23T08:43:07.527Z,14.86
2022-09-23T08:48:43.635Z,14.7
2022-09-23T08:54:15.396Z,15.38
2022-09-23T08:59:47.141Z,15.59
2022-09-23T09:05:18.821Z,15.62
2022-09-23T09:10:50.529Z,15.46
2022-09-23T09:16:36.505Z,16.19
2022-09-23T09:21:53.955Z,16.43
2022-09-23T09:27:25.705Z,16.48
2022-09-23T09:32:57.466Z,16.67
2022-09-23T09:38:29.141Z,16.64
2022-09-23T09:44:00.982Z,17.09
2022-09-23T09:49:40.421Z,17.2
2022-09-23T09:55:08.644Z,17.77
2022-09-23T10:00:40.443Z,17.63
2022-09-23T10:06:12.168Z,17.97
2022-09-23T10:11:43.849Z,17.88
2022-09-23T10:17:15.533Z,17.88
2022-09-23T10:22:47.273Z,18.08
2022-09-23T10:28:19.012Z,18.17
2022-09-23T10:33:50.674Z,18.6
2022-09-23T10:39:22.439Z,18.81
2022-09-23T10:44:54.160Z,18.88
2022-09-23T10:50:30.282Z,18.84
2022-09-23T10:56:01.990Z,18.52
2022-09-23T11:01:33.735Z,18.69
2022-09-23T11:07:05.453Z,19.04
2022-09-23T11:12:37.190Z,19.53
2022-09-23T11:18:08.873Z,19.87
2022-09-23T11:23:40.800Z,19.81
2022-09-23T11:29:12.308Z,20.22
2022-09-23T11:34:44.082Z,20.18
2022-09-23T11:40:15.932Z,20.45
2022-09-23T11:45:47.545Z,20.81
2022-09-23T11:51:25.651Z,20.62
2022-09-23T11:56:57.391Z,20.69
2022-09-23T12:02:30.959Z,20.9
2022-09-23T12:08:00.912Z,20.68
2022-09-23T12:13:32.652Z,20.71
2022-09-23T12:19:04.330Z,21.27
2022-09-23T12:24:36.043Z,21.23
2022-09-23T12:30:07.939Z,21.06
2022-09-23T12:35:39.555Z,20.67
2022-09-23T12:41:11.310Z,20.7
2022-09-23T12:46:43.011Z,20.77
2022-09-23T12:52:19.229Z,20.85
2022-09-23T12:57:50.851Z,20.53
2022-09-23T13:03:22.760Z,20.8
2022-09-23T13:08:54.356Z,20.6
2022-09-23T13:14:27.643Z,20.71
2022-09-23T13:19:57.833Z,21.27
2022-09-23T13:25:29.549Z,21.43
2022-09-23T13:31:01.394Z,20.87
2022-09-23T13:36:33.014Z,20.81
2022-09-23T13:42:04.782Z,20.59
2022-09-23T13:47:36.494Z,20.62
2022-09-23T13:53:12.550Z,20.81
2022-09-23T13:58:44.303Z,21.07
2022-09-23T14:04:16.096Z,21.12
2022-09-23T14:09:47.757Z,21.44
2022-09-23T14:15:19.465Z,21.24
2022-09-23T14:20:51.166Z,21.38
2022-09-23T14:26:22.945Z,21.58
2022-09-23T14:31:54.683Z,21.14
2022-09-23T14:37:26.366Z,21.05
2022-09-23T14:42:58.130Z,21.03
2022-09-23T14:48:29.877Z,20.51
2022-09-23T14:54:07.972Z,20.62
2022-09-23T14:59:39.695Z,20.45
2022-09-23T15:05:11.502Z,19.88
2022-09-23T15:10:43.265Z,20.18
2022-09-23T15:16:15.029Z,20.5
2022-09-23T15:17:04.472Z,20.32
2022-09-23T15:22:36.213Z,20.04
2022-09-23T15:28:07.935Z,20.5
2022-09-23T15:33:39.643Z,20.23
2022-09-23T15:39:11.306Z,20.22
2022-09-23T15:44:43.101Z,20.21
2022-09-23T15:50:14.870Z,20.37
2022-09-23T15:55:46.535Z,20.32
2022-09-23T16:01:18.279Z,20.31
2022-09-23T16:06:49.998Z,20.25
2022-09-23T16:12:21.971Z,20.15
2022-09-23T16:17:59.939Z,20.0
2022-09-23T16:23:31.564Z,19.98
2022-09-23T16:29:03.390Z,19.82
2022-09-23T16:34:35.002Z,19.67
2022-09-23T16:40:06.762Z,19.57
2022-09-23T16:45:38.689Z,19.41
2022-09-23T16:51:10.225Z,19.22
2022-09-23T16:56:41.969Z,19.09
2022-09-23T17:02:13.713Z,18.95
2022-09-23T17:07:45.396Z,18.87
2022-09-23T17:13:17.113Z,18.79
2022-09-23T17:18:55.258Z,18.69
2022-09-23T17:24:27.038Z,18.56
2022-09-23T17:29:58.796Z,18.4
2022-09-23T17:35:30.494Z,18.28
2022-09-23T17:41:02.233Z,18.11
2022-09-23T17:46:34.022Z,18.01
2022-09-23T17:52:05.716Z,17.93
2022-09-23T17:57:37.415Z,17.82
2022-09-23T18:03:09.136Z,17.71
2022-09-23T18:08:40.927Z,17.63
2022-09-23T18:14:12.619Z,17.56
2022-09-23T18:19:48.654Z,17.53
2022-09-23T18:25:37.974Z,17.52
2022-09-23T18:30:52.215Z,17.42
2022-09-23T18:36:23.888Z,17.36
2022-09-23T18:41:55.645Z,17.33
2022-09-23T18:47:27.308Z,17.32
2022-09-23T18:52:59.091Z,17.31
2022-09-23T18:58:30.742Z,17.26
2022-09-23T19:04:02.501Z,17.22
2022-09-23T19:09:34.240Z,17.19
2022-09-23T19:15:05.931Z,17.16
2022-09-23T19:20:44.118Z,17.1
2022-09-23T19:26:15.839Z,17.01
2022-09-23T19:31:47.590Z,16.96
2022-09-23T19:37:19.287Z,16.87
2022-09-23T19:42:50.931Z,16.81
2022-09-23T19:48:22.727Z,16.73
2022-09-23T19:53:54.398Z,16.7
2022-09-23T19:59:26.171Z,16.66
2022-09-23T20:04:57.900Z,16.59
2022-09-23T20:10:29.557Z,16.59
2022-09-23T20:16:01.798Z,16.53
2022-09-23T20:21:37.529Z,16.46
2022-09-23T20:27:09.181Z,16.38
2022-09-23T20:32:44.578Z,16.34
2022-09-23T20:38:12.562Z,16.28
2022-09-23T20:43:44.330Z,16.24
2022-09-23T20:49:16.334Z,16.22
2022-09-23T20:54:47.778Z,16.1
2022-09-23T21:00:19.552Z,16.12
2022-09-23T21:05:51.309Z,16.06
2022-09-23T21:11:23.054Z,16.01
2022-09-23T21:16:54.855Z,15.97
2022-09-23T21:22:30.904Z,15.96
2022-09-23T21:28:02.663Z,15.83
2022-09-23T21:33:34.394Z,15.76
2022-09-23T21:39:06.190Z,15.73
2022-09-23T21:44:37.840Z,15.76
2022-09-23T21:50:09.770Z,15.72
2022-09-23T21:55:41.398Z,15.66
2022-09-23T22:01:13.204Z,15.58
2022-09-23T22:06:45.030Z,15.49
2022-09-23T22:12:16.553Z,15.43
2022-09-23T22:17:48.466Z,15.34
2022-09-23T22:23:24.399Z,15.33
2022-09-23T22:28:56.148Z,15.3
2022-09-23T22:34:48.329Z,15.26
2022-09-23T22:39:59.609Z,15.19
2022-09-23T22:45:31.372Z,15.08
2022-09-23T22:51:03.021Z,15.06
2022-09-23T22:56:34.806Z,15.08
2022-09-23T23:02:06.565Z,15.11
2022-09-23T23:07:38.229Z,15.14
2022-09-23T23:13:09.917Z,15.16
2022-09-23T23:18:41.645Z,15.17
2022-09-23T23:24:17.752Z,15.09
2022-09-23T23:29:49.522Z,15.08
2022-09-23T23:35:21.276Z,15.05
2022-09-23T23:40:52.964Z,14.99
2022-09-23T23:46:24.718Z,15.03
2022-09-23T23:51:56.376Z,15.01
2022-09-23T23:57:28.106Z,15.03
